sensor_id;sensor_type;location;lat;lon;timestamp;temperature;humidity
66596;SHT31;59017;49.252;18.838;2022-12-20T00:00:08;19.63;43.33
66596;SHT31;59017;49.252;18.838;2022-12-20T00:02:34;19.66;44.10
66596;SHT31;59017;49.252;18.838;2022-12-20T00:04:59;19.69;43.63
66596;SHT31;59017;49.252;18.838;2022-12-20T00:07:24;19.71;44.79
66596;SHT31;59017;49.252;18.838;2022-12-20T00:09:50;19.74;44.42
66596;SHT31;59017;49.252;18.838;2022-12-20T00:12:15;19.73;44.45
66596;SHT31;59017;49.252;18.838;2022-12-20T00:14:41;19.73;44.89
66596;SHT31;59017;49.252;18.838;2022-12-20T00:17:06;19.74;44.28
66596;SHT31;59017;49.252;18.838;2022-12-20T00:19:32;19.76;43.89
66596;SHT31;59017;49.252;18.838;2022-12-20T00:21:57;19.76;44.14
66596;SHT31;59017;49.252;18.838;2022-12-20T00:24:22;19.76;44.12
66596;SHT31;59017;49.252;18.838;2022-12-20T00:26:48;19.74;43.44
66596;SHT31;59017;49.252;18.838;2022-12-20T00:29:13;19.80;44.20
66596;SHT31;59017;49.252;18.838;2022-12-20T00:31:38;19.77;44.03
66596;SHT31;59017;49.252;18.838;2022-12-20T00:34:04;19.77;44.14
66596;SHT31;59017;49.252;18.838;2022-12-20T00:36:30;19.77;44.02
66596;SHT31;59017;49.252;18.838;2022-12-20T00:38:56;19.71;43.66
66596;SHT31;59017;49.252;18.838;2022-12-20T00:41:22;19.76;45.08
66596;SHT31;59017;49.252;18.838;2022-12-20T00:43:48;19.74;43.35
66596;SHT31;59017;49.252;18.838;2022-12-20T00:46:14;19.74;43.87
66596;SHT31;59017;49.252;18.838;2022-12-20T00:48:39;19.71;43.87
66596;SHT31;59017;49.252;18.838;2022-12-20T00:51:07;19.73;43.85
66596;SHT31;59017;49.252;18.838;2022-12-20T00:53:32;19.76;44.46
66596;SHT31;59017;49.252;18.838;2022-12-20T00:55:58;19.74;44.04
66596;SHT31;59017;49.252;18.838;2022-12-20T00:58:23;19.78;44.47
66596;SHT31;59017;49.252;18.838;2022-12-20T01:00:49;19.74;44.51
66596;SHT31;59017;49.252;18.838;2022-12-20T01:03:14;19.71;43.89
66596;SHT31;59017;49.252;18.838;2022-12-20T01:05:48;19.69;44.58
66596;SHT31;59017;49.252;18.838;2022-12-20T01:08:13;19.70;44.29
66596;SHT31;59017;49.252;18.838;2022-12-20T01:10:39;19.66;43.75
66596;SHT31;59017;49.252;18.838;2022-12-20T01:13:04;19.64;43.94
66596;SHT31;59017;49.252;18.838;2022-12-20T01:15:30;19.64;44.06
66596;SHT31;59017;49.252;18.838;2022-12-20T01:17:55;19.67;45.06
66596;SHT31;59017;49.252;18.838;2022-12-20T01:20:21;19.64;44.39
66596;SHT31;59017;49.252;18.838;2022-12-20T01:22:47;19.66;44.13
66596;SHT31;59017;49.252;18.838;2022-12-20T01:25:12;19.70;45.28
66596;SHT31;59017;49.252;18.838;2022-12-20T01:27:37;19.69;43.88
66596;SHT31;59017;49.252;18.838;2022-12-20T01:30:03;19.67;44.56
66596;SHT31;59017;49.252;18.838;2022-12-20T01:32:28;19.67;44.04
66596;SHT31;59017;49.252;18.838;2022-12-20T01:34:53;19.67;44.27
66596;SHT31;59017;49.252;18.838;2022-12-20T01:37:19;19.64;44.09
66596;SHT31;59017;49.252;18.838;2022-12-20T01:39:44;19.69;44.56
66596;SHT31;59017;49.252;18.838;2022-12-20T01:42:13;19.67;44.68
66596;SHT31;59017;49.252;18.838;2022-12-20T01:47:07;19.66;43.92
66596;SHT31;59017;49.252;18.838;2022-12-20T01:49:37;19.73;44.06
66596;SHT31;59017;49.252;18.838;2022-12-20T01:52:14;19.73;44.28
66596;SHT31;59017;49.252;18.838;2022-12-20T01:54:45;19.69;44.05
66596;SHT31;59017;49.252;18.838;2022-12-20T01:57:13;19.67;43.59
66596;SHT31;59017;49.252;18.838;2022-12-20T01:59:40;19.69;43.66
66596;SHT31;59017;49.252;18.838;2022-12-20T02:02:08;19.66;44.43
66596;SHT31;59017;49.252;18.838;2022-12-20T02:04:34;19.69;44.51
66596;SHT31;59017;49.252;18.838;2022-12-20T02:07:00;19.67;44.72
66596;SHT31;59017;49.252;18.838;2022-12-20T02:09:26;19.69;44.03
66596;SHT31;59017;49.252;18.838;2022-12-20T02:20:04;19.70;44.22
66596;SHT31;59017;49.252;18.838;2022-12-20T02:30:22;19.67;44.83
66596;SHT31;59017;49.252;18.838;2022-12-20T02:33:02;19.64;43.64
66596;SHT31;59017;49.252;18.838;2022-12-20T02:35:32;19.64;43.75
66596;SHT31;59017;49.252;18.838;2022-12-20T02:37:59;19.63;44.15
66596;SHT31;59017;49.252;18.838;2022-12-20T02:40:30;19.64;44.40
66596;SHT31;59017;49.252;18.838;2022-12-20T02:43:02;19.66;43.31
66596;SHT31;59017;49.252;18.838;2022-12-20T02:45:31;19.64;44.21
66596;SHT31;59017;49.252;18.838;2022-12-20T02:47:59;19.59;43.94
66596;SHT31;59017;49.252;18.838;2022-12-20T02:50:29;19.60;43.87
66596;SHT31;59017;49.252;18.838;2022-12-20T02:52:55;19.60;44.25
66596;SHT31;59017;49.252;18.838;2022-12-20T02:55:23;19.63;43.44
66596;SHT31;59017;49.252;18.838;2022-12-20T02:57:58;19.59;44.02
66596;SHT31;59017;49.252;18.838;2022-12-20T03:00:25;19.60;44.76
66596;SHT31;59017;49.252;18.838;2022-12-20T03:02:54;19.63;44.66
66596;SHT31;59017;49.252;18.838;2022-12-20T03:05:42;19.62;43.80
66596;SHT31;59017;49.252;18.838;2022-12-20T03:08:08;19.60;44.32
66596;SHT31;59017;49.252;18.838;2022-12-20T03:10:33;19.64;43.69
66596;SHT31;59017;49.252;18.838;2022-12-20T03:12:58;19.64;43.87
66596;SHT31;59017;49.252;18.838;2022-12-20T03:15:24;19.63;43.79
66596;SHT31;59017;49.252;18.838;2022-12-20T03:17:49;19.60;43.58
66596;SHT31;59017;49.252;18.838;2022-12-20T03:20:14;19.60;44.30
66596;SHT31;59017;49.252;18.838;2022-12-20T03:22:40;19.62;43.89
66596;SHT31;59017;49.252;18.838;2022-12-20T03:25:05;19.63;44.20
66596;SHT31;59017;49.252;18.838;2022-12-20T03:27:31;19.62;43.47
66596;SHT31;59017;49.252;18.838;2022-12-20T03:29:56;19.56;43.96
66596;SHT31;59017;49.252;18.838;2022-12-20T03:32:21;19.59;43.96
66596;SHT31;59017;49.252;18.838;2022-12-20T03:34:47;19.59;44.76
66596;SHT31;59017;49.252;18.838;2022-12-20T03:37:12;19.59;44.46
66596;SHT31;59017;49.252;18.838;2022-12-20T03:39:37;19.60;43.96
66596;SHT31;59017;49.252;18.838;2022-12-20T03:42:03;19.60;43.77
66596;SHT31;59017;49.252;18.838;2022-12-20T03:44:28;19.59;43.92
66596;SHT31;59017;49.252;18.838;2022-12-20T03:46:54;19.63;44.42
66596;SHT31;59017;49.252;18.838;2022-12-20T03:49:19;19.63;44.27
66596;SHT31;59017;49.252;18.838;2022-12-20T03:51:44;19.62;44.15
66596;SHT31;59017;49.252;18.838;2022-12-20T03:54:09;19.62;44.37
66596;SHT31;59017;49.252;18.838;2022-12-20T03:56:35;19.64;43.96
66596;SHT31;59017;49.252;18.838;2022-12-20T03:59:00;19.64;43.85
66596;SHT31;59017;49.252;18.838;2022-12-20T04:01:27;19.64;44.31
66596;SHT31;59017;49.252;18.838;2022-12-20T04:03:52;19.66;43.96
66596;SHT31;59017;49.252;18.838;2022-12-20T04:06:18;19.69;44.61
66596;SHT31;59017;49.252;18.838;2022-12-20T04:08:43;19.71;43.85
66596;SHT31;59017;49.252;18.838;2022-12-20T04:11:09;19.70;44.35
66596;SHT31;59017;49.252;18.838;2022-12-20T04:13:45;19.71;43.96
66596;SHT31;59017;49.252;18.838;2022-12-20T04:16:13;19.71;43.47
66596;SHT31;59017;49.252;18.838;2022-12-20T04:18:39;19.77;43.69
66596;SHT31;59017;49.252;18.838;2022-12-20T04:21:05;19.81;43.60
66596;SHT31;59017;49.252;18.838;2022-12-20T04:23:32;19.81;44.32
66596;SHT31;59017;49.252;18.838;2022-12-20T04:25:57;19.84;43.21
66596;SHT31;59017;49.252;18.838;2022-12-20T04:28:22;19.81;43.62
66596;SHT31;59017;49.252;18.838;2022-12-20T04:30:48;19.77;43.43
66596;SHT31;59017;49.252;18.838;2022-12-20T04:33:13;19.80;43.94
66596;SHT31;59017;49.252;18.838;2022-12-20T04:35:38;19.77;43.82
66596;SHT31;59017;49.252;18.838;2022-12-20T04:38:04;19.77;43.77
66596;SHT31;59017;49.252;18.838;2022-12-20T04:40:29;19.78;43.47
66596;SHT31;59017;49.252;18.838;2022-12-20T04:42:54;19.77;43.69
66596;SHT31;59017;49.252;18.838;2022-12-20T04:45:20;19.76;43.73
66596;SHT31;59017;49.252;18.838;2022-12-20T04:47:45;19.76;43.22
66596;SHT31;59017;49.252;18.838;2022-12-20T04:50:10;19.73;43.64
66596;SHT31;59017;49.252;18.838;2022-12-20T04:52:36;19.70;43.76
66596;SHT31;59017;49.252;18.838;2022-12-20T04:55:20;19.66;44.13
66596;SHT31;59017;49.252;18.838;2022-12-20T04:57:45;19.67;43.80
66596;SHT31;59017;49.252;18.838;2022-12-20T05:00:10;19.67;44.18
66596;SHT31;59017;49.252;18.838;2022-12-20T05:02:36;19.70;43.71
66596;SHT31;59017;49.252;18.838;2022-12-20T05:05:01;19.71;43.85
66596;SHT31;59017;49.252;18.838;2022-12-20T05:07:27;19.64;43.37
66596;SHT31;59017;49.252;18.838;2022-12-20T05:09:52;19.60;44.13
66596;SHT31;59017;49.252;18.838;2022-12-20T05:12:17;19.60;44.09
66596;SHT31;59017;49.252;18.838;2022-12-20T05:14:43;19.60;44.58
66596;SHT31;59017;49.252;18.838;2022-12-20T05:17:08;19.59;45.06
66596;SHT31;59017;49.252;18.838;2022-12-20T05:19:33;19.60;45.13
66596;SHT31;59017;49.252;18.838;2022-12-20T05:21:59;19.60;44.57
66596;SHT31;59017;49.252;18.838;2022-12-20T05:24:43;19.64;44.96
66596;SHT31;59017;49.252;18.838;2022-12-20T05:27:27;19.67;44.99
66596;SHT31;59017;49.252;18.838;2022-12-20T05:29:52;19.66;44.99
66596;SHT31;59017;49.252;18.838;2022-12-20T05:32:17;19.64;45.68
66596;SHT31;59017;49.252;18.838;2022-12-20T05:34:43;19.67;45.46
66596;SHT31;59017;49.252;18.838;2022-12-20T05:37:08;19.74;45.04
66596;SHT31;59017;49.252;18.838;2022-12-20T05:39:33;19.73;44.25
66596;SHT31;59017;49.252;18.838;2022-12-20T05:41:59;19.69;43.44
66596;SHT31;59017;49.252;18.838;2022-12-20T05:44:24;19.67;44.10
66596;SHT31;59017;49.252;18.838;2022-12-20T05:46:49;19.73;49.05
66596;SHT31;59017;49.252;18.838;2022-12-20T05:49:15;19.55;42.77
66596;SHT31;59017;49.252;18.838;2022-12-20T05:51:40;19.59;42.39
66596;SHT31;59017;49.252;18.838;2022-12-20T05:54:05;19.69;40.81
66596;SHT31;59017;49.252;18.838;2022-12-20T05:56:31;19.64;41.07
66596;SHT31;59017;49.252;18.838;2022-12-20T05:58:56;19.62;40.80
66596;SHT31;59017;49.252;18.838;2022-12-20T06:01:23;19.63;40.60
66596;SHT31;59017;49.252;18.838;2022-12-20T06:03:48;19.63;41.03
66596;SHT31;59017;49.252;18.838;2022-12-20T06:06:15;19.70;41.52
66596;SHT31;59017;49.252;18.838;2022-12-20T06:08:40;19.73;41.22
66596;SHT31;59017;49.252;18.838;2022-12-20T06:11:05;19.80;41.27
66596;SHT31;59017;49.252;18.838;2022-12-20T06:13:31;19.84;41.13
66596;SHT31;59017;49.252;18.838;2022-12-20T06:15:56;19.87;41.32
66596;SHT31;59017;49.252;18.838;2022-12-20T06:18:22;19.88;40.81
66596;SHT31;59017;49.252;18.838;2022-12-20T06:20:50;19.90;40.95
66596;SHT31;59017;49.252;18.838;2022-12-20T06:23:16;19.91;40.64
66596;SHT31;59017;49.252;18.838;2022-12-20T06:25:42;19.94;41.90
66596;SHT31;59017;49.252;18.838;2022-12-20T06:28:07;19.97;41.54
66596;SHT31;59017;49.252;18.838;2022-12-20T06:30:33;19.95;41.10
66596;SHT31;59017;49.252;18.838;2022-12-20T06:32:59;19.97;41.56
66596;SHT31;59017;49.252;18.838;2022-12-20T06:35:24;19.95;41.40
66596;SHT31;59017;49.252;18.838;2022-12-20T06:37:49;19.95;40.64
66596;SHT31;59017;49.252;18.838;2022-12-20T06:40:15;19.97;41.08
66596;SHT31;59017;49.252;18.838;2022-12-20T06:42:40;19.97;41.73
66596;SHT31;59017;49.252;18.838;2022-12-20T06:45:06;19.94;41.14
66596;SHT31;59017;49.252;18.838;2022-12-20T06:47:31;19.98;41.77
66596;SHT31;59017;49.252;18.838;2022-12-20T06:49:56;19.91;41.61
66596;SHT31;59017;49.252;18.838;2022-12-20T06:52:22;19.88;41.12
66596;SHT31;59017;49.252;18.838;2022-12-20T06:54:47;19.88;41.39
66596;SHT31;59017;49.252;18.838;2022-12-20T06:57:13;19.85;41.59
66596;SHT31;59017;49.252;18.838;2022-12-20T06:59:39;19.83;41.46
66596;SHT31;59017;49.252;18.838;2022-12-20T07:02:04;19.81;41.71
66596;SHT31;59017;49.252;18.838;2022-12-20T07:04:29;19.81;42.98
66596;SHT31;59017;49.252;18.838;2022-12-20T07:06:55;19.80;41.88
66596;SHT31;59017;49.252;18.838;2022-12-20T07:09:21;19.76;42.02
66596;SHT31;59017;49.252;18.838;2022-12-20T07:11:46;19.70;41.75
66596;SHT31;59017;49.252;18.838;2022-12-20T07:14:12;19.71;41.88
66596;SHT31;59017;49.252;18.838;2022-12-20T07:16:37;19.71;42.15
66596;SHT31;59017;49.252;18.838;2022-12-20T07:19:05;19.69;42.86
66596;SHT31;59017;49.252;18.838;2022-12-20T07:21:30;19.67;42.10
66596;SHT31;59017;49.252;18.838;2022-12-20T07:23:56;19.69;41.73
66596;SHT31;59017;49.252;18.838;2022-12-20T07:26:21;19.66;42.40
66596;SHT31;59017;49.252;18.838;2022-12-20T07:28:47;19.60;41.00
66596;SHT31;59017;49.252;18.838;2022-12-20T07:31:12;19.60;42.05
66596;SHT31;59017;49.252;18.838;2022-12-20T07:33:38;19.59;41.89
66596;SHT31;59017;49.252;18.838;2022-12-20T07:36:10;19.56;41.18
66596;SHT31;59017;49.252;18.838;2022-12-20T07:38:35;19.59;41.58
66596;SHT31;59017;49.252;18.838;2022-12-20T07:41:07;19.56;42.17
66596;SHT31;59017;49.252;18.838;2022-12-20T07:43:33;19.62;42.48
66596;SHT31;59017;49.252;18.838;2022-12-20T07:45:58;19.63;42.18
66596;SHT31;59017;49.252;18.838;2022-12-20T07:48:24;19.62;42.22
66596;SHT31;59017;49.252;18.838;2022-12-20T07:50:53;19.64;42.08
66596;SHT31;59017;49.252;18.838;2022-12-20T07:53:20;19.63;42.07
66596;SHT31;59017;49.252;18.838;2022-12-20T07:55:46;19.63;42.02
66596;SHT31;59017;49.252;18.838;2022-12-20T07:58:13;19.69;42.24
66596;SHT31;59017;49.252;18.838;2022-12-20T08:00:38;19.66;42.13
66596;SHT31;59017;49.252;18.838;2022-12-20T08:03:23;19.73;42.66
66596;SHT31;59017;49.252;18.838;2022-12-20T08:05:50;19.74;42.83
66596;SHT31;59017;49.252;18.838;2022-12-20T08:08:16;19.70;42.37
66596;SHT31;59017;49.252;18.838;2022-12-20T08:10:42;19.67;42.35
66596;SHT31;59017;49.252;18.838;2022-12-20T08:13:08;19.71;41.86
66596;SHT31;59017;49.252;18.838;2022-12-20T08:15:34;19.71;41.95
66596;SHT31;59017;49.252;18.838;2022-12-20T08:18:00;19.76;41.95
66596;SHT31;59017;49.252;18.838;2022-12-20T08:20:26;19.76;41.57
66596;SHT31;59017;49.252;18.838;2022-12-20T08:22:51;19.77;41.42
66596;SHT31;59017;49.252;18.838;2022-12-20T08:25:16;19.77;41.70
66596;SHT31;59017;49.252;18.838;2022-12-20T08:27:42;19.83;41.39
66596;SHT31;59017;49.252;18.838;2022-12-20T08:30:07;19.84;41.33
66596;SHT31;59017;49.252;18.838;2022-12-20T08:32:34;19.80;41.32
66596;SHT31;59017;49.252;18.838;2022-12-20T08:35:00;19.83;41.60
66596;SHT31;59017;49.252;18.838;2022-12-20T08:37:25;19.81;41.20
66596;SHT31;59017;49.252;18.838;2022-12-20T08:39:51;19.84;41.43
66596;SHT31;59017;49.252;18.838;2022-12-20T08:42:16;19.85;41.15
66596;SHT31;59017;49.252;18.838;2022-12-20T08:44:41;19.85;41.31
66596;SHT31;59017;49.252;18.838;2022-12-20T08:47:08;19.83;41.36
66596;SHT31;59017;49.252;18.838;2022-12-20T08:49:34;19.83;40.95
66596;SHT31;59017;49.252;18.838;2022-12-20T08:51:59;19.84;40.74
66596;SHT31;59017;49.252;18.838;2022-12-20T08:54:25;19.85;41.18
66596;SHT31;59017;49.252;18.838;2022-12-20T08:56:51;19.84;40.98
66596;SHT31;59017;49.252;18.838;2022-12-20T08:59:16;19.88;41.09
66596;SHT31;59017;49.252;18.838;2022-12-20T09:01:42;19.84;41.25
66596;SHT31;59017;49.252;18.838;2022-12-20T09:04:08;19.87;40.88
66596;SHT31;59017;49.252;18.838;2022-12-20T09:06:34;19.87;41.11
66596;SHT31;59017;49.252;18.838;2022-12-20T09:08:59;19.84;41.37
66596;SHT31;59017;49.252;18.838;2022-12-20T09:11:25;19.81;41.06
66596;SHT31;59017;49.252;18.838;2022-12-20T09:13:52;19.85;41.20
66596;SHT31;59017;49.252;18.838;2022-12-20T09:16:19;19.88;40.98
66596;SHT31;59017;49.252;18.838;2022-12-20T09:18:49;19.93;40.86
66596;SHT31;59017;49.252;18.838;2022-12-20T09:21:15;19.93;40.43
66596;SHT31;59017;49.252;18.838;2022-12-20T09:23:40;19.93;39.97
66596;SHT31;59017;49.252;18.838;2022-12-20T09:26:06;19.95;40.90
66596;SHT31;59017;49.252;18.838;2022-12-20T09:28:32;19.94;41.03
66596;SHT31;59017;49.252;18.838;2022-12-20T09:30:58;19.95;40.82
66596;SHT31;59017;49.252;18.838;2022-12-20T09:33:24;19.93;40.34
66596;SHT31;59017;49.252;18.838;2022-12-20T09:35:49;19.95;41.36
66596;SHT31;59017;49.252;18.838;2022-12-20T09:38:15;19.91;41.11
66596;SHT31;59017;49.252;18.838;2022-12-20T09:40:43;19.95;40.84
66596;SHT31;59017;49.252;18.838;2022-12-20T09:43:09;19.98;40.90
66596;SHT31;59017;49.252;18.838;2022-12-20T09:45:35;19.98;40.79
66596;SHT31;59017;49.252;18.838;2022-12-20T09:48:01;19.94;40.67
66596;SHT31;59017;49.252;18.838;2022-12-20T09:50:39;19.97;40.58
66596;SHT31;59017;49.252;18.838;2022-12-20T09:53:12;19.95;40.99
66596;SHT31;59017;49.252;18.838;2022-12-20T09:55:55;19.98;40.36
66596;SHT31;59017;49.252;18.838;2022-12-20T09:58:27;20.00;40.10
66596;SHT31;59017;49.252;18.838;2022-12-20T10:00:56;20.00;40.69
66596;SHT31;59017;49.252;18.838;2022-12-20T10:03:27;20.01;40.45
66596;SHT31;59017;49.252;18.838;2022-12-20T10:05:54;20.00;41.26
66596;SHT31;59017;49.252;18.838;2022-12-20T10:18:53;20.01;41.69
66596;SHT31;59017;49.252;18.838;2022-12-20T10:24:01;20.12;41.96
66596;SHT31;59017;49.252;18.838;2022-12-20T10:26:26;20.24;41.82
66596;SHT31;59017;49.252;18.838;2022-12-20T10:28:52;20.29;41.96
66596;SHT31;59017;49.252;18.838;2022-12-20T10:31:18;20.32;43.00
66596;SHT31;59017;49.252;18.838;2022-12-20T10:33:43;20.36;42.55
66596;SHT31;59017;49.252;18.838;2022-12-20T10:38:44;20.46;43.92
66596;SHT31;59017;49.252;18.838;2022-12-20T10:41:13;20.51;43.43
66596;SHT31;59017;49.252;18.838;2022-12-20T10:43:44;20.57;43.69
66596;SHT31;59017;49.252;18.838;2022-12-20T10:46:10;20.60;43.02
66596;SHT31;59017;49.252;18.838;2022-12-20T10:48:37;20.63;43.81
66596;SHT31;59017;49.252;18.838;2022-12-20T10:51:03;20.65;43.58
66596;SHT31;59017;49.252;18.838;2022-12-20T10:53:48;20.66;44.16
66596;SHT31;59017;49.252;18.838;2022-12-20T10:56:18;20.68;43.41
66596;SHT31;59017;49.252;18.838;2022-12-20T11:01:36;20.63;43.80
66596;SHT31;59017;49.252;18.838;2022-12-20T11:04:20;20.65;42.19
66596;SHT31;59017;49.252;18.838;2022-12-20T11:06:49;20.55;41.85
66596;SHT31;59017;49.252;18.838;2022-12-20T11:11:56;20.38;43.50
66596;SHT31;59017;49.252;18.838;2022-12-20T11:14:22;20.31;42.75
66596;SHT31;59017;49.252;18.838;2022-12-20T11:16:48;20.31;42.87
66596;SHT31;59017;49.252;18.838;2022-12-20T11:21:46;20.26;43.02
66596;SHT31;59017;49.252;18.838;2022-12-20T11:24:16;20.26;43.28
66596;SHT31;59017;49.252;18.838;2022-12-20T11:26:54;20.26;42.07
66596;SHT31;59017;49.252;18.838;2022-12-20T11:32:08;20.26;43.67
66596;SHT31;59017;49.252;18.838;2022-12-20T11:34:44;20.25;43.06
66596;SHT31;59017;49.252;18.838;2022-12-20T11:37:20;20.26;44.21
66596;SHT31;59017;49.252;18.838;2022-12-20T11:44:53;20.20;43.20
66596;SHT31;59017;49.252;18.838;2022-12-20T11:57:28;20.18;42.90
66596;SHT31;59017;49.252;18.838;2022-12-20T11:59:56;20.20;42.75
66596;SHT31;59017;49.252;18.838;2022-12-20T12:02:25;20.21;42.87
66596;SHT31;59017;49.252;18.838;2022-12-20T12:04:58;20.21;42.45
66596;SHT31;59017;49.252;18.838;2022-12-20T12:07:28;20.18;42.99
66596;SHT31;59017;49.252;18.838;2022-12-20T12:10:03;20.15;42.72
66596;SHT31;59017;49.252;18.838;2022-12-20T12:15:02;20.08;43.79
66596;SHT31;59017;49.252;18.838;2022-12-20T12:17:43;20.10;43.50
66596;SHT31;59017;49.252;18.838;2022-12-20T12:22:41;20.24;43.86
66596;SHT31;59017;49.252;18.838;2022-12-20T12:25:11;20.25;42.77
66596;SHT31;59017;49.252;18.838;2022-12-20T12:27:38;20.21;42.57
66596;SHT31;59017;49.252;18.838;2022-12-20T12:30:04;20.17;43.04
66596;SHT31;59017;49.252;18.838;2022-12-20T12:35:12;20.21;43.39
66596;SHT31;59017;49.252;18.838;2022-12-20T12:43:01;20.20;43.20
66596;SHT31;59017;49.252;18.838;2022-12-20T12:48:37;20.18;42.33
66596;SHT31;59017;49.252;18.838;2022-12-20T12:51:04;20.21;42.93
66596;SHT31;59017;49.252;18.838;2022-12-20T12:55:55;20.17;42.73
66596;SHT31;59017;49.252;18.838;2022-12-20T13:00:50;20.20;42.25
66596;SHT31;59017;49.252;18.838;2022-12-20T13:03:16;20.18;43.09
66596;SHT31;59017;49.252;18.838;2022-12-20T13:06:15;20.18;41.89
66596;SHT31;59017;49.252;18.838;2022-12-20T13:08:48;20.17;42.95
66596;SHT31;59017;49.252;18.838;2022-12-20T13:11:14;20.18;42.32
66596;SHT31;59017;49.252;18.838;2022-12-20T13:14:09;20.20;42.35
66596;SHT31;59017;49.252;18.838;2022-12-20T13:16:36;20.20;42.28
66596;SHT31;59017;49.252;18.838;2022-12-20T13:19:09;20.22;41.88
66596;SHT31;59017;49.252;18.838;2022-12-20T13:21:36;20.29;42.63
66596;SHT31;59017;49.252;18.838;2022-12-20T13:26:49;20.20;43.12
66596;SHT31;59017;49.252;18.838;2022-12-20T13:29:25;20.18;43.21
66596;SHT31;59017;49.252;18.838;2022-12-20T13:31:51;20.12;42.82
66596;SHT31;59017;49.252;18.838;2022-12-20T13:37:00;20.10;42.85
66596;SHT31;59017;49.252;18.838;2022-12-20T13:41:52;20.10;42.46
66596;SHT31;59017;49.252;18.838;2022-12-20T13:44:33;20.12;42.64
66596;SHT31;59017;49.252;18.838;2022-12-20T13:47:05;20.15;42.51
66596;SHT31;59017;49.252;18.838;2022-12-20T13:49:41;20.14;42.44
66596;SHT31;59017;49.252;18.838;2022-12-20T13:54:38;20.17;42.44
66596;SHT31;59017;49.252;18.838;2022-12-20T13:57:04;20.17;41.82
66596;SHT31;59017;49.252;18.838;2022-12-20T13:59:31;20.18;42.17
66596;SHT31;59017;49.252;18.838;2022-12-20T14:01:59;20.14;42.17
66596;SHT31;59017;49.252;18.838;2022-12-20T14:04:25;20.14;42.41
66596;SHT31;59017;49.252;18.838;2022-12-20T14:06:52;20.11;42.31
66596;SHT31;59017;49.252;18.838;2022-12-20T14:09:32;20.10;42.29
66596;SHT31;59017;49.252;18.838;2022-12-20T14:12:04;20.10;42.95
66596;SHT31;59017;49.252;18.838;2022-12-20T14:14:30;20.11;42.10
66596;SHT31;59017;49.252;18.838;2022-12-20T14:16:55;20.08;41.97
66596;SHT31;59017;49.252;18.838;2022-12-20T14:19:21;20.10;42.11
66596;SHT31;59017;49.252;18.838;2022-12-20T14:21:46;20.08;42.28
66596;SHT31;59017;49.252;18.838;2022-12-20T14:24:13;20.12;42.44
66596;SHT31;59017;49.252;18.838;2022-12-20T14:26:41;20.15;43.09
66596;SHT31;59017;49.252;18.838;2022-12-20T14:29:10;20.14;42.40
66596;SHT31;59017;49.252;18.838;2022-12-20T14:31:41;20.11;42.32
66596;SHT31;59017;49.252;18.838;2022-12-20T14:36:45;20.10;42.20
66596;SHT31;59017;49.252;18.838;2022-12-20T14:39:27;20.10;43.31
66596;SHT31;59017;49.252;18.838;2022-12-20T14:41:54;20.12;42.64
66596;SHT31;59017;49.252;18.838;2022-12-20T14:44:20;20.08;43.09
66596;SHT31;59017;49.252;18.838;2022-12-20T14:46:53;20.10;42.88
66596;SHT31;59017;49.252;18.838;2022-12-20T14:49:27;20.08;43.49
66596;SHT31;59017;49.252;18.838;2022-12-20T14:54:47;20.04;42.32
66596;SHT31;59017;49.252;18.838;2022-12-20T14:57:22;20.12;42.94
66596;SHT31;59017;49.252;18.838;2022-12-20T15:03:01;20.01;43.17
66596;SHT31;59017;49.252;18.838;2022-12-20T15:13:17;20.01;42.06
66596;SHT31;59017;49.252;18.838;2022-12-20T15:15:42;20.05;42.34
66596;SHT31;59017;49.252;18.838;2022-12-20T15:18:12;20.07;42.87
66596;SHT31;59017;49.252;18.838;2022-12-20T15:20:38;20.04;42.88
66596;SHT31;59017;49.252;18.838;2022-12-20T15:23:03;20.08;41.60
66596;SHT31;59017;49.252;18.838;2022-12-20T15:25:29;20.08;41.95
66596;SHT31;59017;49.252;18.838;2022-12-20T15:27:58;20.08;42.61
66596;SHT31;59017;49.252;18.838;2022-12-20T15:30:23;20.08;41.97
66596;SHT31;59017;49.252;18.838;2022-12-20T15:32:48;20.08;42.52
66596;SHT31;59017;49.252;18.838;2022-12-20T15:35:14;20.04;41.67
66596;SHT31;59017;49.252;18.838;2022-12-20T15:37:39;20.08;41.95
66596;SHT31;59017;49.252;18.838;2022-12-20T15:40:05;20.08;42.22
66596;SHT31;59017;49.252;18.838;2022-12-20T15:42:30;20.08;41.65
66596;SHT31;59017;49.252;18.838;2022-12-20T15:44:56;20.07;42.35
66596;SHT31;59017;49.252;18.838;2022-12-20T15:47:22;20.05;42.15
66596;SHT31;59017;49.252;18.838;2022-12-20T15:49:47;20.05;42.52
66596;SHT31;59017;49.252;18.838;2022-12-20T15:52:20;20.05;42.07
66596;SHT31;59017;49.252;18.838;2022-12-20T15:54:45;20.11;42.14
66596;SHT31;59017;49.252;18.838;2022-12-20T15:57:12;20.10;41.76
66596;SHT31;59017;49.252;18.838;2022-12-20T15:59:37;20.05;42.46
66596;SHT31;59017;49.252;18.838;2022-12-20T16:02:07;20.08;41.63
66596;SHT31;59017;49.252;18.838;2022-12-20T16:04:34;20.08;41.78
66596;SHT31;59017;49.252;18.838;2022-12-20T16:06:59;20.04;42.26
66596;SHT31;59017;49.252;18.838;2022-12-20T16:09:24;20.03;42.60
66596;SHT31;59017;49.252;18.838;2022-12-20T16:11:50;20.03;42.28
66596;SHT31;59017;49.252;18.838;2022-12-20T16:14:16;20.07;42.43
66596;SHT31;59017;49.252;18.838;2022-12-20T16:16:41;20.03;42.36
66596;SHT31;59017;49.252;18.838;2022-12-20T16:19:08;20.01;41.89
66596;SHT31;59017;49.252;18.838;2022-12-20T16:21:34;20.07;41.65
66596;SHT31;59017;49.252;18.838;2022-12-20T16:24:00;20.05;41.67
66596;SHT31;59017;49.252;18.838;2022-12-20T16:26:26;20.08;41.60
66596;SHT31;59017;49.252;18.838;2022-12-20T16:28:52;20.08;41.99
66596;SHT31;59017;49.252;18.838;2022-12-20T16:31:28;20.08;41.70
66596;SHT31;59017;49.252;18.838;2022-12-20T16:33:57;20.03;41.00
66596;SHT31;59017;49.252;18.838;2022-12-20T16:36:23;19.94;42.21
66596;SHT31;59017;49.252;18.838;2022-12-20T16:38:49;19.97;42.04
66596;SHT31;59017;49.252;18.838;2022-12-20T16:41:18;19.94;41.57
66596;SHT31;59017;49.252;18.838;2022-12-20T16:43:45;19.95;42.38
66596;SHT31;59017;49.252;18.838;2022-12-20T16:46:11;19.95;41.72
66596;SHT31;59017;49.252;18.838;2022-12-20T16:48:37;19.95;42.88
66596;SHT31;59017;49.252;18.838;2022-12-20T16:51:02;19.97;41.92
66596;SHT31;59017;49.252;18.838;2022-12-20T16:53:27;19.97;42.20
66596;SHT31;59017;49.252;18.838;2022-12-20T16:55:53;20.00;41.90
66596;SHT31;59017;49.252;18.838;2022-12-20T16:58:18;19.98;41.70
66596;SHT31;59017;49.252;18.838;2022-12-20T17:00:43;19.97;41.93
66596;SHT31;59017;49.252;18.838;2022-12-20T17:03:09;20.00;42.64